Time;durP1;ratioP1;P1;durP2;ratioP2;P2;SDS_P1;SDS_P2;PMS_P1;PMS_P2;Temp;Humidity;BMP_temperature;BMP_pressure;BME280_temperature;BME280_humidity;BME280_pressure;Samples;Min_cycle;Max_cycle;Signal;HPM_P1;HPM_P2
2022/02/20 00:00:38;;;;;;;;;;;22.50;29.90;;;;;;5056276;28;19951;-46
2022/02/20 00:03:03;;;;;;;;;;;22.50;30.00;;;;;;5038908;28;19999;-45
2022/02/20 00:05:29;;;;;;;;;;;22.50;30.00;;;;;;5045062;28;19927;-46
2022/02/20 00:07:55;;;;;;;;;;;22.50;30.00;;;;;;5041416;28;20235;-47
2022/02/20 00:10:21;;;;;;;;;;;22.50;30.00;;;;;;5037775;28;19904;-48
2022/02/20 00:12:48;;;;;;;;;;;22.40;29.90;;;;;;5056010;28;20228;-45
2022/02/20 00:15:13;;;;;;;;;;;22.50;30.00;;;;;;5047348;28;19959;-46
2022/02/20 00:17:39;;;;;;;;;;;22.50;30.00;;;;;;5055823;28;19915;-45
2022/02/20 00:20:05;;;;;;;;;;;22.40;29.90;;;;;;5054530;28;19904;-47
2022/02/20 00:22:31;;;;;;;;;;;22.40;29.90;;;;;;5035896;28;20339;-46
2022/02/20 00:24:57;;;;;;;;;;;22.40;29.90;;;;;;5041785;28;19905;-46
2022/02/20 00:27:23;;;;;;;;;;;22.40;29.90;;;;;;5052029;28;19916;-45
2022/02/20 00:29:49;;;;;;;;;;;22.40;30.00;;;;;;5041380;28;19905;-44
2022/02/20 00:32:15;;;;;;;;;;;22.40;29.90;;;;;;5039415;28;20346;-45
2022/02/20 00:34:40;;;;;;;;;;;22.40;30.00;;;;;;5038369;28;20333;-45
2022/02/20 00:37:06;;;;;;;;;;;22.40;30.00;;;;;;5048490;28;19913;-44
2022/02/20 00:39:32;;;;;;;;;;;22.40;30.00;;;;;;5042340;28;20320;-47
2022/02/20 00:41:59;;;;;;;;;;;22.40;29.90;;;;;;5034079;28;19916;-44
2022/02/20 00:44:25;;;;;;;;;;;22.30;29.90;;;;;;5026909;28;19904;-52
2022/02/20 00:46:50;;;;;;;;;;;22.40;29.90;;;;;;5052480;28;19917;-44
2022/02/20 00:49:17;;;;;;;;;;;22.30;29.90;;;;;;5045188;28;19904;-47
2022/02/20 00:51:43;;;;;;;;;;;22.30;29.90;;;;;;5052432;28;19980;-46
2022/02/20 00:54:08;;;;;;;;;;;22.30;29.90;;;;;;5034050;28;19917;-49
2022/02/20 00:56:35;;;;;;;;;;;22.30;29.90;;;;;;5019068;28;19935;-48
2022/02/20 00:59:01;;;;;;;;;;;22.30;29.90;;;;;;5035299;28;19916;-46
2022/02/20 01:01:27;;;;;;;;;;;22.30;29.90;;;;;;5036372;28;19974;-47
2022/02/20 01:03:53;;;;;;;;;;;22.30;29.90;;;;;;5035698;28;20299;-48
2022/02/20 01:06:19;;;;;;;;;;;22.30;29.90;;;;;;5027620;28;19905;-49
2022/02/20 01:08:45;;;;;;;;;;;22.30;29.90;;;;;;5053045;28;19958;-46
2022/02/20 01:11:11;;;;;;;;;;;22.30;30.40;;;;;;5044892;28;19905;-48
2022/02/20 01:13:36;;;;;;;;;;;22.30;29.90;;;;;;5035995;28;19905;-45
2022/02/20 01:16:02;;;;;;;;;;;22.30;29.90;;;;;;5034393;28;19918;-45
2022/02/20 01:18:28;;;;;;;;;;;22.20;29.80;;;;;;5054579;28;20007;-48
2022/02/20 01:20:53;;;;;;;;;;;22.20;29.80;;;;;;5052951;28;19905;-43
2022/02/20 01:23:19;;;;;;;;;;;22.20;29.80;;;;;;5040565;28;19954;-50
2022/02/20 01:25:45;;;;;;;;;;;22.20;29.80;;;;;;5028411;28;20373;-44
2022/02/20 01:28:11;;;;;;;;;;;22.20;29.80;;;;;;5040713;28;19908;-44
2022/02/20 01:30:37;;;;;;;;;;;22.20;29.80;;;;;;5046166;28;19904;-44
2022/02/20 01:33:05;;;;;;;;;;;22.20;29.80;;;;;;5040282;28;20208;-46
2022/02/20 01:35:30;;;;;;;;;;;22.10;29.80;;;;;;5048671;28;19913;-44
2022/02/20 01:37:56;;;;;;;;;;;22.20;29.80;;;;;;5025469;28;19958;-53
2022/02/20 01:40:27;;;;;;;;;;;22.20;30.30;;;;;;5024746;28;20231;-50
2022/02/20 01:42:54;;;;;;;;;;;22.20;29.90;;;;;;5025757;28;20235;-51
2022/02/20 01:45:20;;;;;;;;;;;22.20;29.90;;;;;;5036501;28;19988;-46
2022/02/20 01:47:45;;;;;;;;;;;22.20;29.90;;;;;;5028959;28;19980;-47
2022/02/20 01:50:11;;;;;;;;;;;22.20;29.90;;;;;;5038553;28;19905;-47
2022/02/20 01:52:40;;;;;;;;;;;22.20;29.90;;;;;;5030403;28;20438;-45
2022/02/20 01:55:09;;;;;;;;;;;22.10;29.90;;;;;;5030092;28;19908;-44
2022/02/20 01:57:54;;;;;;;;;;;22.10;29.90;;;;;;5022900;28;19924;-44
2022/02/20 02:00:39;;;;;;;;;;;22.10;29.90;;;;;;5042134;28;20279;-43
2022/02/20 02:03:25;;;;;;;;;;;22.10;29.90;;;;;;5056388;28;20290;-43
2022/02/20 02:05:59;;;;;;;;;;;22.10;29.90;;;;;;5031126;28;19932;-43
2022/02/20 02:08:25;;;;;;;;;;;22.10;29.90;;;;;;5022169;28;20332;-43
2022/02/20 02:11:11;;;;;;;;;;;22.10;29.90;;;;;;5038223;28;19951;-48
2022/02/20 02:13:55;;;;;;;;;;;22.10;29.90;;;;;;5039393;28;19971;-43
2022/02/20 02:16:41;;;;;;;;;;;22.10;29.90;;;;;;5037312;28;19974;-44
2022/02/20 02:19:42;;;;;;;;;;;22.00;29.90;;;;;;5013520;28;19909;-45
2022/02/20 02:22:31;;;;;;;;;;;22.00;29.90;;;;;;5033322;28;19904;-48
2022/02/20 02:25:17;;;;;;;;;;;22.00;29.90;;;;;;5024104;28;20393;-46
2022/02/20 02:27:47;;;;;;;;;;;22.00;29.90;;;;;;5036413;28;20263;-49
2022/02/20 02:30:31;;;;;;;;;;;22.00;29.90;;;;;;5037534;28;20323;-44
2022/02/20 02:32:56;;;;;;;;;;;22.00;29.90;;;;;;5023634;28;19904;-44
2022/02/20 02:35:22;;;;;;;;;;;22.00;29.90;;;;;;5040082;28;19916;-44
2022/02/20 02:37:49;;;;;;;;;;;22.00;29.90;;;;;;5023576;28;19905;-49
2022/02/20 02:40:15;;;;;;;;;;;21.90;29.90;;;;;;5020102;28;19963;-49
2022/02/20 02:42:41;;;;;;;;;;;21.90;29.90;;;;;;5023066;28;19908;-42
2022/02/20 02:45:07;;;;;;;;;;;21.90;29.90;;;;;;5037489;28;20282;-44
2022/02/20 02:47:33;;;;;;;;;;;21.90;29.90;;;;;;5030186;28;19991;-42
2022/02/20 02:49:58;;;;;;;;;;;21.90;29.90;;;;;;5037914;28;19916;-48
2022/02/20 02:52:24;;;;;;;;;;;21.90;29.90;;;;;;5028750;28;19928;-43
2022/02/20 02:54:50;;;;;;;;;;;21.90;29.90;;;;;;5020847;28;19912;-46
2022/02/20 02:57:16;;;;;;;;;;;21.90;29.90;;;;;;5035441;28;20227;-44
2022/02/20 02:59:43;;;;;;;;;;;21.90;29.90;;;;;;5019358;28;19921;-48
2022/02/20 03:02:09;;;;;;;;;;;21.90;29.90;;;;;;5025430;28;20275;-46
2022/02/20 03:04:34;;;;;;;;;;;21.90;29.90;;;;;;5035614;28;19944;-43
2022/02/20 03:07:00;;;;;;;;;;;21.80;29.90;;;;;;5037765;28;19905;-46
2022/02/20 03:09:26;;;;;;;;;;;21.90;29.90;;;;;;5021479;28;19912;-42
2022/02/20 03:11:52;;;;;;;;;;;21.80;29.90;;;;;;5034702;28;19927;-46
2022/02/20 03:14:24;;;;;;;;;;;21.80;29.90;;;;;;5020921;28;19905;-45
2022/02/20 03:16:52;;;;;;;;;;;21.80;29.90;;;;;;5039161;28;19923;-47
2022/02/20 03:19:18;;;;;;;;;;;21.80;29.90;;;;;;5028961;28;19992;-44
2022/02/20 03:21:44;;;;;;;;;;;21.80;29.90;;;;;;5056272;28;19997;-44
2022/02/20 03:24:14;;;;;;;;;;;21.80;29.90;;;;;;5034791;28;20042;-45
2022/02/20 03:26:40;;;;;;;;;;;21.80;29.90;;;;;;5037341;28;19947;-48
2022/02/20 03:29:05;;;;;;;;;;;21.80;29.90;;;;;;5031241;28;20403;-45
2022/02/20 03:31:33;;;;;;;;;;;21.80;29.90;;;;;;5025687;28;19905;-45
2022/02/20 03:34:02;;;;;;;;;;;21.80;30.00;;;;;;5030764;28;19962;-44
2022/02/20 03:36:31;;;;;;;;;;;21.70;29.90;;;;;;5019095;28;19916;-45
2022/02/20 03:38:57;;;;;;;;;;;21.80;30.00;;;;;;5025299;28;19958;-54
2022/02/20 03:41:27;;;;;;;;;;;21.70;29.90;;;;;;5026611;28;19982;-49
2022/02/20 03:43:52;;;;;;;;;;;21.80;30.00;;;;;;5041834;28;20324;-46
2022/02/20 03:46:20;;;;;;;;;;;21.70;29.90;;;;;;5033145;28;19966;-51
2022/02/20 03:48:57;;;;;;;;;;;21.70;30.00;;;;;;5027743;28;20019;-52
2022/02/20 03:51:41;;;;;;;;;;;21.70;29.90;;;;;;5025272;28;19905;-49
2022/02/20 03:54:07;;;;;;;;;;;21.70;30.00;;;;;;5019287;28;19904;-50
2022/02/20 03:56:33;;;;;;;;;;;21.80;30.00;;;;;;5024562;28;19919;-49
2022/02/20 03:58:59;;;;;;;;;;;21.70;30.00;;;;;;5023683;28;19965;-49
2022/02/20 04:01:25;;;;;;;;;;;21.80;30.00;;;;;;5027598;28;19912;-50
2022/02/20 04:03:52;;;;;;;;;;;21.70;30.00;;;;;;5022727;28;19905;-47
2022/02/20 04:06:19;;;;;;;;;;;21.80;30.00;;;;;;5018268;28;19912;-46
2022/02/20 04:08:50;;;;;;;;;;;21.70;30.00;;;;;;5019408;28;19920;-49
2022/02/20 04:11:16;;;;;;;;;;;21.70;30.00;;;;;;5018704;28;20016;-45
2022/02/20 04:13:57;;;;;;;;;;;21.70;30.00;;;;;;5019604;28;19928;-47
2022/02/20 04:16:32;;;;;;;;;;;21.70;30.00;;;;;;5030965;28;19924;-46
2022/02/20 04:18:58;;;;;;;;;;;21.70;30.00;;;;;;5018403;28;19905;-46
2022/02/20 04:21:25;;;;;;;;;;;21.70;30.00;;;;;;5035957;28;19905;-46
2022/02/20 04:23:57;;;;;;;;;;;21.70;30.00;;;;;;5036894;28;19905;-46
2022/02/20 04:26:23;;;;;;;;;;;21.70;30.00;;;;;;5045167;28;19996;-45
2022/02/20 04:28:49;;;;;;;;;;;21.70;30.00;;;;;;5030265;28;19970;-46
2022/02/20 04:31:17;;;;;;;;;;;21.70;30.00;;;;;;5022537;28;19908;-47
2022/02/20 04:33:43;;;;;;;;;;;21.60;30.00;;;;;;5036369;28;19915;-45
2022/02/20 04:36:10;;;;;;;;;;;21.60;30.50;;;;;;5022830;28;19912;-44
2022/02/20 04:38:36;;;;;;;;;;;21.60;30.00;;;;;;5018063;28;19913;-47
2022/02/20 04:41:05;;;;;;;;;;;21.60;30.60;;;;;;5028447;28;19935;-46
2022/02/20 04:43:33;;;;;;;;;;;21.60;30.00;;;;;;5032937;28;19919;-50
2022/02/20 04:46:05;;;;;;;;;;;21.60;30.00;;;;;;5031977;28;19908;-45
2022/02/20 04:48:31;;;;;;;;;;;21.60;30.00;;;;;;5026279;28;19905;-45
2022/02/20 04:50:58;;;;;;;;;;;21.60;30.00;;;;;;5026519;28;19957;-43
2022/02/20 04:53:24;;;;;;;;;;;21.60;30.00;;;;;;5053084;28;19912;-42
2022/02/20 04:55:54;;;;;;;;;;;21.60;30.00;;;;;;5036532;28;19912;-47
2022/02/20 04:58:26;;;;;;;;;;;21.60;30.00;;;;;;5030914;28;20332;-46
2022/02/20 05:00:52;;;;;;;;;;;21.60;30.00;;;;;;5026669;28;19920;-49
2022/02/20 05:03:37;;;;;;;;;;;21.60;30.00;;;;;;5016121;28;19905;-48
2022/02/20 05:06:09;;;;;;;;;;;21.60;30.00;;;;;;5041590;28;19909;-49
2022/02/20 05:08:47;;;;;;;;;;;21.60;30.00;;;;;;5026869;28;19904;-48
2022/02/20 05:11:27;;;;;;;;;;;21.50;30.00;;;;;;5025940;28;19908;-47
2022/02/20 05:13:58;;;;;;;;;;;21.60;30.00;;;;;;5054581;28;20216;-45
2022/02/20 05:16:26;;;;;;;;;;;21.50;30.00;;;;;;5028558;28;19913;-46
2022/02/20 05:18:52;;;;;;;;;;;21.50;30.00;;;;;;5033760;28;19944;-45
2022/02/20 05:21:18;;;;;;;;;;;21.50;30.00;;;;;;5047733;28;19905;-45
2022/02/20 05:23:44;;;;;;;;;;;21.50;30.00;;;;;;5032251;28;20017;-47
2022/02/20 05:26:10;;;;;;;;;;;21.50;30.00;;;;;;5043226;28;20451;-48
2022/02/20 05:28:35;;;;;;;;;;;21.50;30.00;;;;;;5017568;28;19915;-42
2022/02/20 05:31:06;;;;;;;;;;;21.50;30.00;;;;;;5023055;28;20243;-42
2022/02/20 05:33:33;;;;;;;;;;;21.50;30.00;;;;;;5037008;28;19912;-45
2022/02/20 05:35:58;;;;;;;;;;;21.50;30.00;;;;;;5024046;28;20004;-45
2022/02/20 05:38:35;;;;;;;;;;;21.50;30.10;;;;;;5037253;28;20266;-45
2022/02/20 05:41:00;;;;;;;;;;;21.50;30.10;;;;;;5025333;28;19923;-45
2022/02/20 05:43:26;;;;;;;;;;;21.50;30.10;;;;;;5036718;28;19913;-47
2022/02/20 05:45:53;;;;;;;;;;;21.50;30.10;;;;;;5020695;28;20343;-42
2022/02/20 05:48:25;;;;;;;;;;;21.50;30.20;;;;;;5017329;28;19915;-45
2022/02/20 05:51:06;;;;;;;;;;;21.50;30.20;;;;;;5042833;28;19904;-43
2022/02/20 05:53:37;;;;;;;;;;;21.40;30.10;;;;;;5037292;28;20318;-48
2022/02/20 05:56:03;;;;;;;;;;;21.50;30.20;;;;;;5034109;28;19967;-45
2022/02/20 05:58:40;;;;;;;;;;;21.40;30.20;;;;;;5032065;28;19904;-46
2022/02/20 06:01:05;;;;;;;;;;;21.40;30.20;;;;;;5026896;28;19914;-45
2022/02/20 06:03:33;;;;;;;;;;;21.40;30.20;;;;;;5044419;28;19978;-47
2022/02/20 06:06:18;;;;;;;;;;;21.40;30.30;;;;;;5034698;28;19967;-45
2022/02/20 06:09:04;;;;;;;;;;;21.40;30.30;;;;;;5049902;28;19991;-44
2022/02/20 06:11:43;;;;;;;;;;;21.40;30.30;;;;;;5025987;28;19944;-45
2022/02/20 06:14:20;;;;;;;;;;;21.40;30.30;;;;;;5053890;28;19917;-45
2022/02/20 06:16:55;;;;;;;;;;;21.40;30.30;;;;;;5023286;28;19909;-48
2022/02/20 06:19:27;;;;;;;;;;;21.40;30.30;;;;;;5037269;28;19913;-45
2022/02/20 06:22:05;;;;;;;;;;;21.40;30.40;;;;;;5024681;28;20332;-48
2022/02/20 06:24:36;;;;;;;;;;;21.40;30.40;;;;;;5024266;28;19909;-48
2022/02/20 06:27:06;;;;;;;;;;;21.30;30.40;;;;;;5024126;28;19916;-49
2022/02/20 06:29:32;;;;;;;;;;;21.40;30.40;;;;;;5027055;28;19904;-44
2022/02/20 06:31:59;;;;;;;;;;;21.40;30.50;;;;;;5024050;28;19905;-46
2022/02/20 06:34:28;;;;;;;;;;;21.40;30.50;;;;;;5025817;28;19905;-44
2022/02/20 06:36:54;;;;;;;;;;;21.30;30.50;;;;;;5027252;28;19924;-46
2022/02/20 06:39:20;;;;;;;;;;;21.30;30.50;;;;;;5022673;28;19904;-43
2022/02/20 06:41:46;;;;;;;;;;;21.30;30.50;;;;;;5036522;28;20338;-43
2022/02/20 06:44:12;;;;;;;;;;;21.30;31.20;;;;;;5023202;28;19996;-44
2022/02/20 06:46:47;;;;;;;;;;;21.30;30.60;;;;;;5057542;28;19904;-47
2022/02/20 06:49:21;;;;;;;;;;;21.30;30.60;;;;;;5035816;28;19928;-47
2022/02/20 06:51:52;;;;;;;;;;;21.30;30.70;;;;;;5039910;28;19912;-42
2022/02/20 06:54:53;;;;;;;;;;;21.30;30.70;;;;;;5021676;28;19905;-42
2022/02/20 06:57:23;;;;;;;;;;;21.30;30.80;;;;;;5025847;28;19912;-43
2022/02/20 06:59:48;;;;;;;;;;;21.30;30.80;;;;;;5042319;28;20392;-47
2022/02/20 07:02:14;;;;;;;;;;;21.30;30.90;;;;;;5041442;28;19913;-43
2022/02/20 07:04:39;;;;;;;;;;;21.30;30.90;;;;;;5056520;28;19912;-45
2022/02/20 07:07:05;;;;;;;;;;;21.30;30.90;;;;;;5053533;28;19905;-43
2022/02/20 07:09:31;;;;;;;;;;;21.30;31.00;;;;;;5048563;28;19905;-47
2022/02/20 07:11:57;;;;;;;;;;;21.30;31.00;;;;;;5056439;28;19908;-43
2022/02/20 07:14:22;;;;;;;;;;;21.30;31.00;;;;;;5056051;28;19905;-44
2022/02/20 07:16:49;;;;;;;;;;;21.30;31.10;;;;;;5056103;28;19931;-47
2022/02/20 07:19:14;;;;;;;;;;;21.20;31.10;;;;;;5046382;28;19905;-44
2022/02/20 07:21:40;;;;;;;;;;;21.30;31.20;;;;;;5042123;28;20232;-45
2022/02/20 07:24:06;;;;;;;;;;;21.30;31.20;;;;;;5044494;28;19992;-45
2022/02/20 07:26:32;;;;;;;;;;;21.30;31.30;;;;;;5048475;28;19951;-46
2022/02/20 07:28:58;;;;;;;;;;;21.30;31.30;;;;;;5019322;28;20234;-44
2022/02/20 07:31:26;;;;;;;;;;;21.20;31.30;;;;;;5038071;28;19913;-51
2022/02/20 07:33:54;;;;;;;;;;;21.20;31.30;;;;;;5047993;28;20241;-53
2022/02/20 07:36:20;;;;;;;;;;;21.20;31.40;;;;;;5037316;28;19909;-47
2022/02/20 07:38:46;;;;;;;;;;;21.20;31.40;;;;;;5049524;28;20290;-47
2022/02/20 07:41:11;;;;;;;;;;;21.20;31.50;;;;;;5039576;28;19905;-46
2022/02/20 07:43:37;;;;;;;;;;;21.20;31.50;;;;;;5052099;28;19963;-45
2022/02/20 07:46:03;;;;;;;;;;;21.20;31.50;;;;;;5040837;28;19905;-52
2022/02/20 07:48:28;;;;;;;;;;;21.20;31.60;;;;;;5051566;28;19975;-45
2022/02/20 07:50:54;;;;;;;;;;;21.20;31.70;;;;;;5055235;28;19988;-42
2022/02/20 07:53:20;;;;;;;;;;;21.20;31.70;;;;;;5045400;28;19905;-42
2022/02/20 07:55:46;;;;;;;;;;;21.20;31.80;;;;;;5052863;28;19915;-44
2022/02/20 07:58:12;;;;;;;;;;;21.20;31.90;;;;;;5048328;28;19905;-47
2022/02/20 08:00:39;;;;;;;;;;;21.20;31.90;;;;;;5036644;28;19905;-48
2022/02/20 08:03:05;;;;;;;;;;;21.20;32.00;;;;;;5029441;28;19936;-45
2022/02/20 08:05:31;;;;;;;;;;;21.30;32.10;;;;;;5050426;28;20324;-46
2022/02/20 08:07:57;;;;;;;;;;;21.30;32.30;;;;;;5054175;28;20007;-47
2022/02/20 08:10:22;;;;;;;;;;;21.20;32.50;;;;;;5053463;28;20362;-52
2022/02/20 08:12:48;;;;;;;;;;;21.20;32.60;;;;;;5041363;28;19904;-50
2022/02/20 08:15:14;;;;;;;;;;;21.30;32.70;;;;;;5048694;28;19999;-46
2022/02/20 08:17:43;;;;;;;;;;;21.30;32.80;;;;;;5046275;28;19913;-50
2022/02/20 08:20:09;;;;;;;;;;;21.40;32.90;;;;;;5059700;28;20304;-50
2022/02/20 08:22:35;;;;;;;;;;;21.40;33.00;;;;;;5052534;28;19912;-51
2022/02/20 08:25:01;;;;;;;;;;;21.50;33.10;;;;;;5054822;28;20350;-52
2022/02/20 08:27:35;;;;;;;;;;;21.70;33.20;;;;;;5039020;28;19912;-47
2022/02/20 08:30:03;;;;;;;;;;;21.70;33.20;;;;;;5029471;28;19908;-51
2022/02/20 08:32:30;;;;;;;;;;;21.80;33.20;;;;;;5061162;28;19958;-51
2022/02/20 08:34:56;;;;;;;;;;;21.90;33.80;;;;;;5070529;28;19905;-52
2022/02/20 08:37:21;;;;;;;;;;;22.10;33.20;;;;;;5043581;28;19923;-53
2022/02/20 08:39:48;;;;;;;;;;;22.10;33.20;;;;;;5071187;28;20339;-49
2022/02/20 08:42:14;;;;;;;;;;;22.20;33.20;;;;;;5047466;28;19904;-53
2022/02/20 08:44:41;;;;;;;;;;;22.40;33.30;;;;;;5054465;28;20324;-52
2022/02/20 08:47:07;;;;;;;;;;;22.40;33.20;;;;;;5038543;28;19909;-50
2022/02/20 08:49:33;;;;;;;;;;;22.60;33.30;;;;;;5034544;28;19954;-53
2022/02/20 08:52:00;;;;;;;;;;;22.60;33.20;;;;;;5033062;28;19916;-51
2022/02/20 08:54:26;;;;;;;;;;;22.70;33.30;;;;;;5061035;28;19905;-49
2022/02/20 08:56:52;;;;;;;;;;;22.80;33.30;;;;;;5056789;28;19912;-45
2022/02/20 08:59:18;;;;;;;;;;;22.90;33.30;;;;;;5054784;28;19908;-47
2022/02/20 09:01:44;;;;;;;;;;;23.00;33.30;;;;;;5039701;28;19917;-49
2022/02/20 09:04:12;;;;;;;;;;;23.00;33.30;;;;;;5034613;28;20237;-45
2022/02/20 09:06:38;;;;;;;;;;;23.10;33.30;;;;;;5047687;28;20266;-45
2022/02/20 09:09:04;;;;;;;;;;;23.20;33.30;;;;;;5054675;28;19909;-44
2022/02/20 09:11:29;;;;;;;;;;;23.30;33.40;;;;;;5046502;28;20366;-45
2022/02/20 09:13:56;;;;;;;;;;;23.30;33.40;;;;;;5052017;28;19905;-48
2022/02/20 09:16:21;;;;;;;;;;;23.40;33.40;;;;;;5034172;28;20059;-45
2022/02/20 09:18:47;;;;;;;;;;;23.40;33.40;;;;;;5046365;28;20323;-47
2022/02/20 09:21:13;;;;;;;;;;;23.50;33.40;;;;;;5036817;28;19908;-50
2022/02/20 09:23:39;;;;;;;;;;;23.50;33.40;;;;;;5050982;28;19940;-49
2022/02/20 09:26:04;;;;;;;;;;;23.50;33.40;;;;;;5034335;28;20427;-48
2022/02/20 09:28:31;;;;;;;;;;;23.60;33.50;;;;;;5053027;28;19916;-44
2022/02/20 09:30:57;;;;;;;;;;;23.60;33.50;;;;;;5034427;28;19905;-45
2022/02/20 09:33:23;;;;;;;;;;;23.70;33.50;;;;;;5043794;28;19905;-48
2022/02/20 09:35:49;;;;;;;;;;;23.70;33.50;;;;;;5034122;28;19983;-49
2022/02/20 09:38:14;;;;;;;;;;;23.70;33.20;;;;;;5049311;28;19915;-46
2022/02/20 09:40:42;;;;;;;;;;;23.70;32.90;;;;;;5053977;28;19959;-48
2022/02/20 09:43:11;;;;;;;;;;;23.70;32.50;;;;;;5059725;28;19909;-46
2022/02/20 09:45:37;;;;;;;;;;;23.70;32.50;;;;;;5070000;28;20403;-48
2022/02/20 09:48:02;;;;;;;;;;;23.70;32.50;;;;;;5037980;28;20011;-45
2022/02/20 09:50:28;;;;;;;;;;;23.70;32.60;;;;;;5040379;28;19940;-48
2022/02/20 09:52:54;;;;;;;;;;;23.80;32.70;;;;;;5057622;28;19908;-45
2022/02/20 09:55:19;;;;;;;;;;;23.80;32.80;;;;;;5038931;28;19932;-50
2022/02/20 09:57:45;;;;;;;;;;;23.90;33.10;;;;;;5037977;28;20315;-43
2022/02/20 10:00:11;;;;;;;;;;;23.90;33.30;;;;;;5046453;28;19904;-45
2022/02/20 10:02:44;;;;;;;;;;;24.00;33.50;;;;;;5054633;28;19928;-48
2022/02/20 10:05:17;;;;;;;;;;;24.10;33.80;;;;;;5053700;28;19915;-48
2022/02/20 10:07:43;;;;;;;;;;;24.10;33.90;;;;;;5061392;28;19904;-46
2022/02/20 10:10:13;;;;;;;;;;;24.10;33.80;;;;;;5053139;28;20011;-51
2022/02/20 10:12:39;;;;;;;;;;;24.20;33.90;;;;;;5054285;28;19904;-48
2022/02/20 10:15:22;;;;;;;;;;;24.20;33.80;;;;;;5057517;28;19908;-51
2022/02/20 10:17:48;;;;;;;;;;;24.30;33.90;;;;;;5057358;28;19969;-50
2022/02/20 10:20:32;;;;;;;;;;;24.30;33.90;;;;;;5056044;28;20358;-43
2022/02/20 10:23:16;;;;;;;;;;;24.30;33.90;;;;;;5057252;28;19915;-50
2022/02/20 10:26:24;;;;;;;;;;;24.30;34.00;;;;;;4983491;28;20487;-44
2022/02/20 10:29:09;;;;;;;;;;;24.30;34.10;;;;;;4989513;28;19984;-46
2022/02/20 10:31:37;;;;;;;;;;;24.30;34.30;;;;;;5024111;28;19909;-44
2022/02/20 10:34:04;;;;;;;;;;;24.20;34.40;;;;;;5034297;28;20240;-46
2022/02/20 10:36:47;;;;;;;;;;;24.20;34.60;;;;;;5057614;28;19912;-41
2022/02/20 10:39:20;;;;;;;;;;;24.10;34.70;;;;;;5022418;28;19919;-42
2022/02/20 10:41:45;;;;;;;;;;;24.20;34.90;;;;;;5042627;28;19920;-47
2022/02/20 10:44:12;;;;;;;;;;;24.20;35.00;;;;;;5053501;28;19904;-56
2022/02/20 10:46:37;;;;;;;;;;;24.10;34.90;;;;;;5049193;28;19905;-42
2022/02/20 10:49:03;;;;;;;;;;;24.10;34.40;;;;;;5049364;28;19909;-42
2022/02/20 10:51:39;;;;;;;;;;;24.00;34.20;;;;;;5043873;28;19970;-48
2022/02/20 10:54:05;;;;;;;;;;;23.90;34.00;;;;;;5040190;28;20324;-42
2022/02/20 10:56:41;;;;;;;;;;;23.90;34.30;;;;;;5037266;28;19923;-46
2022/02/20 10:59:07;;;;;;;;;;;23.80;34.80;;;;;;5046947;28;19905;-44
2022/02/20 11:01:32;;;;;;;;;;;23.80;35.30;;;;;;5040089;28;19935;-45
2022/02/20 11:04:03;;;;;;;;;;;23.80;35.80;;;;;;5050368;28;19912;-40
2022/02/20 11:06:29;;;;;;;;;;;23.70;36.10;;;;;;5052721;28;19909;-44
2022/02/20 11:08:56;;;;;;;;;;;23.70;36.30;;;;;;5049609;28;19915;-46
2022/02/20 11:11:37;;;;;;;;;;;23.70;36.50;;;;;;5037835;28;20228;-46
2022/02/20 11:14:07;;;;;;;;;;;23.70;36.40;;;;;;5051582;28;19905;-45
2022/02/20 11:16:33;;;;;;;;;;;23.70;36.30;;;;;;5036665;28;20208;-44
2022/02/20 11:19:03;;;;;;;;;;;23.80;36.10;;;;;;5041355;28;19905;-46
2022/02/20 11:21:32;;;;;;;;;;;23.80;36.00;;;;;;5053193;28;19944;-47
2022/02/20 11:23:59;;;;;;;;;;;23.80;35.90;;;;;;5046561;28;19967;-50
2022/02/20 11:26:26;;;;;;;;;;;23.80;35.80;;;;;;5047628;28;20411;-48
2022/02/20 11:28:52;;;;;;;;;;;23.80;35.70;;;;;;5039475;28;20236;-47
2022/02/20 11:31:19;;;;;;;;;;;23.80;35.60;;;;;;5024963;28;19905;-44
2022/02/20 11:33:51;;;;;;;;;;;23.80;35.60;;;;;;5041731;28;19963;-45
2022/02/20 11:36:18;;;;;;;;;;;23.80;36.20;;;;;;5035632;28;19974;-47
2022/02/20 11:39:00;;;;;;;;;;;23.80;35.50;;;;;;5037738;28;19913;-46
2022/02/20 11:41:26;;;;;;;;;;;23.80;35.40;;;;;;5045013;28;19909;-42
2022/02/20 11:43:51;;;;;;;;;;;23.80;35.40;;;;;;5036088;28;19928;-46
2022/02/20 11:46:20;;;;;;;;;;;23.80;35.40;;;;;;5039596;28;19912;-47
2022/02/20 11:49:04;;;;;;;;;;;23.80;35.30;;;;;;5036801;28;19905;-42
2022/02/20 11:51:31;;;;;;;;;;;23.70;35.30;;;;;;5047592;28;19905;-47
2022/02/20 11:54:12;;;;;;;;;;;23.70;35.30;;;;;;5036625;28;19995;-46
2022/02/20 11:56:38;;;;;;;;;;;23.80;35.30;;;;;;5046539;28;20224;-49
2022/02/20 11:59:17;;;;;;;;;;;23.70;35.30;;;;;;5054601;28;19936;-47
2022/02/20 12:02:12;;;;;;;;;;;23.70;35.30;;;;;;5050677;28;19958;-46
2022/02/20 12:04:50;;;;;;;;;;;23.80;35.40;;;;;;5053803;28;19974;-47
2022/02/20 12:07:29;;;;;;;;;;;23.80;35.40;;;;;;5064066;28;19917;-46
2022/02/20 12:10:13;;;;;;;;;;;23.80;35.40;;;;;;5052119;28;19915;-43
2022/02/20 12:12:39;;;;;;;;;;;23.80;35.40;;;;;;5034598;28;20328;-46
2022/02/20 12:15:23;;;;;;;;;;;23.80;35.40;;;;;;5038524;28;19905;-43
2022/02/20 12:18:19;;;;;;;;;;;23.80;35.40;;;;;;5049317;28;20027;-47
2022/02/20 12:20:56;;;;;;;;;;;23.90;35.40;;;;;;5022788;28;19909;-43
2022/02/20 12:23:29;;;;;;;;;;;23.90;35.40;;;;;;5039823;28;19912;-50
2022/02/20 12:25:55;;;;;;;;;;;23.90;35.40;;;;;;5039521;28;19908;-49
2022/02/20 12:28:37;;;;;;;;;;;23.90;35.40;;;;;;5044522;28;19916;-51
2022/02/20 12:31:08;;;;;;;;;;;24.00;35.70;;;;;;5027554;28;19912;-44
2022/02/20 12:33:35;;;;;;;;;;;24.10;35.50;;;;;;5041784;28;19948;-43
2022/02/20 12:36:02;;;;;;;;;;;24.10;35.40;;;;;;5036490;28;20392;-44
2022/02/20 12:38:28;;;;;;;;;;;24.10;35.40;;;;;;5038414;28;20585;-50
2022/02/20 12:40:53;;;;;;;;;;;24.20;35.40;;;;;;5036453;28;19920;-43
2022/02/20 12:43:19;;;;;;;;;;;24.20;35.40;;;;;;5037102;28;19916;-46
2022/02/20 12:45:45;;;;;;;;;;;24.30;35.40;;;;;;5038201;28;19928;-54
2022/02/20 12:48:14;;;;;;;;;;;24.30;35.30;;;;;;5044591;28;19959;-47
2022/02/20 12:50:43;;;;;;;;;;;24.30;35.20;;;;;;5043107;28;20010;-46
2022/02/20 12:53:09;;;;;;;;;;;24.40;35.20;;;;;;5038684;28;20332;-42
2022/02/20 12:55:35;;;;;;;;;;;24.40;35.10;;;;;;5038164;28;19916;-43
2022/02/20 12:58:02;;;;;;;;;;;24.40;35.10;;;;;;5051208;28;19919;-53
2022/02/20 13:00:30;;;;;;;;;;;24.40;35.10;;;;;;5043319;28;19991;-48
2022/02/20 13:02:56;;;;;;;;;;;24.50;35.10;;;;;;5043935;28;20396;-47
2022/02/20 13:05:26;;;;;;;;;;;24.50;35.00;;;;;;5046973;28;19970;-46
2022/02/20 13:07:53;;;;;;;;;;;24.60;35.00;;;;;;5043323;28;19984;-51
2022/02/20 13:10:21;;;;;;;;;;;24.60;35.00;;;;;;5038562;28;19996;-46
2022/02/20 13:13:06;;;;;;;;;;;24.60;34.90;;;;;;5041200;28;19944;-51
2022/02/20 13:15:37;;;;;;;;;;;24.70;34.90;;;;;;5045241;28;19934;-49
2022/02/20 13:18:07;;;;;;;;;;;24.70;34.70;;;;;;5043063;28;19923;-49
2022/02/20 13:20:38;;;;;;;;;;;24.70;34.70;;;;;;5045772;28;20345;-48
2022/02/20 13:23:17;;;;;;;;;;;24.70;34.70;;;;;;5040234;28;20055;-49
2022/02/20 13:25:43;;;;;;;;;;;24.80;34.70;;;;;;5038349;28;20383;-46
2022/02/20 13:28:14;;;;;;;;;;;24.80;34.60;;;;;;5046644;28;19905;-45
2022/02/20 13:30:40;;;;;;;;;;;24.80;34.60;;;;;;5040614;28;20309;-46
2022/02/20 13:33:07;;;;;;;;;;;24.80;34.50;;;;;;5045782;28;19927;-47
2022/02/20 13:35:33;;;;;;;;;;;24.80;34.50;;;;;;5042392;28;19904;-49
2022/02/20 13:38:04;;;;;;;;;;;24.70;34.40;;;;;;5021257;28;20363;-44
2022/02/20 13:40:30;;;;;;;;;;;24.80;34.50;;;;;;5049038;28;19927;-44
2022/02/20 13:43:02;;;;;;;;;;;24.80;34.40;;;;;;5050342;28;19988;-45
2022/02/20 13:45:28;;;;;;;;;;;24.80;34.40;;;;;;5051017;28;19974;-46
2022/02/20 13:47:53;;;;;;;;;;;24.70;34.30;;;;;;5049767;28;20007;-50
2022/02/20 13:50:20;;;;;;;;;;;24.70;34.30;;;;;;5044666;28;19915;-47
2022/02/20 13:52:46;;;;;;;;;;;24.70;34.30;;;;;;5042204;28;19909;-45
2022/02/20 13:55:27;;;;;;;;;;;24.70;34.30;;;;;;5040255;28;19944;-49
2022/02/20 13:57:53;;;;;;;;;;;24.70;34.30;;;;;;5046335;28;19935;-48
2022/02/20 14:00:19;;;;;;;;;;;24.70;34.30;;;;;;5041501;28;20411;-47
2022/02/20 14:02:45;;;;;;;;;;;24.70;34.20;;;;;;5041709;28;20000;-46
2022/02/20 14:05:23;;;;;;;;;;;24.70;34.20;;;;;;5037368;28;19948;-48
2022/02/20 14:07:49;;;;;;;;;;;24.70;34.20;;;;;;5044234;28;20247;-45
2022/02/20 14:10:16;;;;;;;;;;;24.70;34.30;;;;;;5042126;28;19905;-46
2022/02/20 14:12:43;;;;;;;;;;;24.70;34.30;;;;;;5049199;28;20391;-46
2022/02/20 14:15:14;;;;;;;;;;;24.70;34.30;;;;;;5041923;28;20323;-52
2022/02/20 14:17:46;;;;;;;;;;;24.60;34.20;;;;;;5040028;28;20372;-53
2022/02/20 14:20:12;;;;;;;;;;;24.70;34.30;;;;;;5045770;28;19916;-48
2022/02/20 14:22:38;;;;;;;;;;;24.70;34.30;;;;;;5039053;28;19921;-51
2022/02/20 14:25:05;;;;;;;;;;;24.60;34.30;;;;;;5047153;28;19920;-49
2022/02/20 14:27:34;;;;;;;;;;;24.70;34.30;;;;;;5041024;28;19909;-48